Time;durP1;ratioP1;P1;durP2;ratioP2;P2;SDS_P1;SDS_P2;PMS_P1;PMS_P2;Temp;Humidity;BMP_temperature;BMP_pressure;BME280_temperature;BME280_humidity;BME280_pressure;Samples;Min_cycle;Max_cycle;Signal;HPM_P1;HPM_P2
2022/12/09 00:01:58;;;;;;;38.83;16.52;;;;;;;1.48;100.00;99648.94;5073260;28;20020;-73
2022/12/09 00:04:26;;;;;;;36.33;17.30;;;;;;;1.55;100.00;99658.44;5072292;28;20542;-74
2022/12/09 00:06:53;;;;;;;30.90;16.08;;;;;;;1.58;100.00;99657.53;5071793;28;20024;-74
2022/12/09 00:09:19;;;;;;;31.80;17.02;;;;;;;1.59;100.00;99656.28;5073342;28;20040;-72
2022/12/09 00:11:44;;;;;;;33.20;17.33;;;;;;;1.60;100.00;99655.06;5073700;28;20027;-72
2022/12/09 00:14:11;;;;;;;31.35;16.42;;;;;;;1.58;100.00;99658.31;5071215;28;20040;-74
2022/12/09 00:16:36;;;;;;;32.20;15.30;;;;;;;1.58;100.00;99652.69;5071521;28;20029;-75
2022/12/09 00:19:06;;;;;;;29.70;15.20;;;;;;;1.57;100.00;99645.47;5071397;28;20082;-73
2022/12/09 00:21:37;;;;;;;33.00;16.48;;;;;;;1.52;100.00;99645.22;5071087;28;20500;-74
2022/12/09 00:24:05;;;;;;;34.00;16.60;;;;;;;1.57;100.00;99655.94;5071563;28;20469;-74
2022/12/09 00:26:34;;;;;;;32.45;16.80;;;;;;;1.56;100.00;99651.53;5071557;28;20032;-74
2022/12/09 00:29:01;;;;;;;32.42;17.42;;;;;;;1.54;100.00;99652.00;5070268;28;20501;-74
2022/12/09 00:31:33;;;;;;;30.10;16.20;;;;;;;1.46;100.00;99645.78;5067187;28;20107;-73
2022/12/09 00:34:01;;;;;;;31.10;16.55;;;;;;;1.55;100.00;99659.22;5050604;28;20115;-73
2022/12/09 00:36:29;;;;;;;33.78;16.08;;;;;;;1.55;100.00;99655.63;5070307;28;20370;-73
2022/12/09 00:38:58;;;;;;;36.13;17.60;;;;;;;1.58;100.00;99657.53;5071507;28;20071;-74
2022/12/09 00:41:24;;;;;;;29.55;15.18;;;;;;;1.60;100.00;99657.88;5071575;28;20024;-74
2022/12/09 00:43:51;;;;;;;38.50;17.67;;;;;;;1.59;100.00;99659.09;5036519;28;20044;-72
2022/12/09 00:46:35;;;;;;;34.08;18.70;;;;;;;1.56;100.00;99657.97;5053283;28;20077;-74
2022/12/09 00:49:07;;;;;;;39.78;17.95;;;;;;;1.51;100.00;99660.53;5068218;28;20193;-74
2022/12/09 00:51:38;;;;;;;46.90;20.02;;;;;;;1.53;100.00;99666.53;5071079;28;20505;-75
2022/12/09 00:54:04;;;;;;;45.25;19.83;;;;;;;1.48;100.00;99663.03;5071035;28;20383;-73
2022/12/09 00:56:30;;;;;;;47.67;20.58;;;;;;;1.52;100.00;99667.75;5069920;28;20446;-72
2022/12/09 00:58:57;;;;;;;50.75;23.02;;;;;;;1.48;100.00;99668.66;5071068;28;20154;-74
2022/12/09 01:01:24;;;;;;;45.80;20.52;;;;;;;1.41;100.00;99662.44;5054165;28;20051;-72
2022/12/09 01:03:49;;;;;;;46.58;21.55;;;;;;;1.41;100.00;99668.84;5072750;28;20035;-74
2022/12/09 01:06:27;;;;;;;42.30;19.83;;;;;;;1.46;100.00;99665.50;5072706;28;20024;-71
2022/12/09 01:08:53;;;;;;;40.17;19.00;;;;;;;1.46;100.00;99661.88;5071665;28;20115;-71
2022/12/09 01:11:21;;;;;;;37.90;17.75;;;;;;;1.49;100.00;99666.63;5072263;28;20112;-71
2022/12/09 01:13:48;;;;;;;37.53;18.13;;;;;;;1.51;100.00;99666.16;5071496;28;20040;-71
2022/12/09 01:16:32;;;;;;;31.25;17.42;;;;;;;1.53;100.00;99660.91;5072938;28;20036;-71
2022/12/09 01:19:00;;;;;;;33.20;16.50;;;;;;;1.54;100.00;99662.47;5075591;28;20496;-72
2022/12/09 01:21:28;;;;;;;33.95;16.83;;;;;;;1.52;100.00;99662.91;5074933;28;20073;-72
2022/12/09 01:23:56;;;;;;;36.95;17.35;;;;;;;1.50;100.00;99664.63;5074968;28;20481;-73
2022/12/09 01:26:22;;;;;;;35.92;17.42;;;;;;;1.48;100.00;99651.78;5076218;28;20122;-71
2022/12/09 01:28:51;;;;;;;28.60;14.68;;;;;;;1.52;100.00;99657.28;5076365;28;20067;-71
2022/12/09 01:31:19;;;;;;;32.58;16.38;;;;;;;1.57;100.00;99665.19;5076391;28;20032;-71
2022/12/09 01:33:44;;;;;;;35.63;17.35;;;;;;;1.58;100.00;99661.13;5074746;28;20119;-70
2022/12/09 01:36:16;;;;;;;38.92;17.00;;;;;;;1.59;100.00;99659.91;5074663;28;20112;-72
2022/12/09 01:38:44;;;;;;;29.73;15.27;;;;;;;1.61;100.00;99665.06;5074640;28;20447;-72
2022/12/09 01:41:13;;;;;;;33.20;16.75;;;;;;;1.60;100.00;99660.69;5074779;28;20113;-70
2022/12/09 01:43:40;;;;;;;36.22;16.38;;;;;;;1.61;100.00;99659.44;5075914;28;20072;-72
2022/12/09 01:46:06;;;;;;;28.48;15.95;;;;;;;1.59;100.00;99659.09;5076157;28;20077;-71
2022/12/09 01:48:41;;;;;;;32.35;16.27;;;;;;;1.62;100.00;99661.03;5075635;28;20040;-72
2022/12/09 01:51:18;;;;;;;28.42;14.82;;;;;;;1.61;100.00;99657.41;5058260;28;20032;-71
2022/12/09 01:54:07;;;;;;;30.95;16.30;;;;;;;1.61;100.00;99656.63;5074467;28;20342;-72
2022/12/09 01:56:53;;;;;;;29.52;14.52;;;;;;;1.59;100.00;99647.84;5074128;28;20115;-71
2022/12/09 01:59:19;;;;;;;34.80;16.20;;;;;;;1.58;100.00;99646.25;5070984;28;20091;-71
2022/12/09 02:01:49;;;;;;;30.75;15.20;;;;;;;1.57;100.00;99647.50;5075429;28;20495;-74
2022/12/09 02:04:15;;;;;;;28.50;14.40;;;;;;;1.52;100.00;99648.03;5041010;28;20025;-71
2022/12/09 02:06:40;;;;;;;30.75;15.73;;;;;;;1.48;100.00;99648.94;5075510;28;20047;-70
2022/12/09 02:09:07;;;;;;;29.83;16.05;;;;;;;1.55;100.00;99653.59;5074112;28;20111;-71
2022/12/09 02:12:10;;;;;;;32.08;16.70;;;;;;;1.57;100.00;99655.94;5057386;28;20036;-71
2022/12/09 02:15:07;;;;;;;30.33;14.57;;;;;;;1.60;100.00;99653.00;5058864;28;20393;-71
2022/12/09 02:17:51;;;;;;;33.08;15.73;;;;;;;1.67;100.00;99652.81;5059608;28;20135;-73
2022/12/09 02:20:37;;;;;;;30.88;14.15;;;;;;;1.65;100.00;99643.25;5073555;28;20021;-70
2022/12/09 02:23:28;;;;;;;28.80;16.00;;;;;;;1.69;100.00;99661.63;5072608;28;20052;-72
2022/12/09 02:25:58;;;;;;;32.00;15.52;;;;;;;1.71;100.00;99659.13;5072775;28;20075;-70
2022/12/09 02:28:42;;;;;;;29.60;13.30;;;;;;;1.73;100.00;99644.59;5073732;28;20024;-72
2022/12/09 02:31:26;;;;;;;32.92;13.98;;;;;;;1.75;100.00;99654.16;5064357;28;20028;-72
2022/12/09 02:34:15;;;;;;;26.45;14.50;;;;;;;1.79;100.00;99651.25;5070211;28;20389;-72
2022/12/09 02:37:03;;;;;;;28.83;14.80;;;;;;;1.79;100.00;99649.25;5073770;28;20111;-71
2022/12/09 02:39:52;;;;;;;28.25;14.88;;;;;;;1.75;100.00;99642.13;5075094;28;20031;-72
2022/12/09 02:42:21;;;;;;;32.50;16.08;;;;;;;1.70;100.00;99648.31;5072932;28;20039;-72
2022/12/09 02:44:49;;;;;;;31.23;14.43;;;;;;;1.66;100.00;99637.16;5053209;28;20076;-73
2022/12/09 02:47:18;;;;;;;29.15;15.15;;;;;;;1.63;100.00;99629.59;5072162;28;20033;-73
2022/12/09 02:49:53;;;;;;;27.95;15.55;;;;;;;1.56;100.00;99635.44;5073148;28;20024;-74
2022/12/09 02:52:20;;;;;;;26.35;14.52;;;;;;;1.49;100.00;99632.84;5052544;28;20040;-73
2022/12/09 02:54:46;;;;;;;32.47;16.08;;;;;;;1.42;100.00;99633.06;5054027;28;20136;-73
2022/12/09 02:57:17;;;;;;;31.52;15.48;;;;;;;1.32;100.00;99634.94;5073785;28;20067;-73
2022/12/09 02:59:43;;;;;;;28.05;13.88;;;;;;;1.24;100.00;99647.66;5053512;28;20037;-73
2022/12/09 03:02:28;;;;;;;31.27;14.68;;;;;;;1.19;100.00;99642.56;5074331;28;20073;-74
2022/12/09 03:05:32;;;;;;;30.90;15.30;;;;;;;1.14;100.00;99636.69;5073198;28;20065;-73
2022/12/09 03:08:09;;;;;;;32.33;14.73;;;;;;;1.06;100.00;99632.50;5056458;28;20052;-73
2022/12/09 03:11:06;;;;;;;30.45;15.27;;;;;;;1.00;100.00;99629.44;5056324;28;20036;-72
2022/12/09 03:14:03;;;;;;;30.17;15.82;;;;;;;0.90;100.00;99627.72;5069498;28;20040;-73
2022/12/09 03:16:35;;;;;;;29.23;14.35;;;;;;;0.84;100.00;99635.09;5074141;28;20025;-73
2022/12/09 03:19:22;;;;;;;36.53;15.77;;;;;;;0.76;100.00;99633.75;5073206;28;20381;-73
2022/12/09 03:21:59;;;;;;;32.88;16.63;;;;;;;0.68;100.00;99629.50;5073736;28;20059;-71
2022/12/09 03:24:36;;;;;;;31.85;14.57;;;;;;;0.69;100.00;99636.72;5055991;28;20079;-71
2022/12/09 03:27:05;;;;;;;26.50;14.50;;;;;;;0.66;100.00;99629.97;5073112;28;20193;-73
2022/12/09 03:29:35;;;;;;;30.90;17.10;;;;;;;0.66;100.00;99632.78;5056726;28;20063;-72
2022/12/09 03:32:01;;;;;;;35.85;16.33;;;;;;;0.67;100.00;99628.72;5074404;28;20078;-72
2022/12/09 03:34:32;;;;;;;32.97;16.73;;;;;;;0.69;100.00;99625.47;5056034;28;20016;-73
2022/12/09 03:36:59;;;;;;;32.67;15.82;;;;;;;0.71;100.00;99625.84;5043325;28;20048;-70
2022/12/09 03:39:29;;;;;;;35.50;16.02;;;;;;;0.71;100.00;99631.47;5072772;28;20028;-73
2022/12/09 03:41:57;;;;;;;29.83;15.30;;;;;;;0.71;100.00;99623.81;5055621;28;20034;-73
2022/12/09 03:44:33;;;;;;;27.48;15.25;;;;;;;0.72;100.00;99619.75;5072231;28;20052;-72
2022/12/09 03:47:00;;;;;;;30.13;15.55;;;;;;;0.80;100.00;99626.78;5055727;28;20496;-73
2022/12/09 03:49:26;;;;;;;36.85;15.73;;;;;;;0.88;100.00;99621.75;5052241;28;20065;-72
2022/12/09 03:52:03;;;;;;;35.35;14.77;;;;;;;0.94;100.00;99620.75;5063540;28;20177;-72
2022/12/09 03:54:35;;;;;;;39.58;16.77;;;;;;;0.97;100.00;99628.31;5052414;28;20024;-72
2022/12/09 03:57:01;;;;;;;34.13;16.60;;;;;;;0.97;100.00;99621.88;5052255;28;20052;-71
2022/12/09 03:59:30;;;;;;;36.33;16.75;;;;;;;0.99;100.00;99625.06;5035617;28;20095;-72
2022/12/09 04:01:56;;;;;;;36.03;16.60;;;;;;;1.01;100.00;99614.13;5035608;28;20086;-72
2022/12/09 04:04:22;;;;;;;45.65;23.55;;;;;;;0.97;100.00;99613.44;5068888;28;20033;-72
2022/12/09 04:06:50;;;;;;;43.30;18.27;;;;;;;0.95;100.00;99607.50;5053311;28;20051;-72
2022/12/09 04:09:16;;;;;;;38.75;17.67;;;;;;;1.00;100.00;99606.94;5052147;28;20028;-73
2022/12/09 04:11:41;;;;;;;38.22;16.83;;;;;;;0.96;100.00;99612.66;5053330;28;20046;-74
2022/12/09 04:14:07;;;;;;;42.63;19.30;;;;;;;0.97;100.00;99610.63;5068758;28;20470;-73
2022/12/09 04:16:33;;;;;;;40.47;17.85;;;;;;;0.96;100.00;99618.28;5051991;28;20124;-72
2022/12/09 04:18:59;;;;;;;47.85;21.33;;;;;;;0.92;100.00;99631.66;5052116;28;20070;-72
2022/12/09 04:21:25;;;;;;;41.30;20.55;;;;;;;0.85;100.00;99620.63;5053323;28;20029;-73
2022/12/09 04:23:50;;;;;;;42.72;21.27;;;;;;;0.77;100.00;99624.84;5053179;28;20533;-73
2022/12/09 04:26:20;;;;;;;44.45;20.75;;;;;;;0.68;100.00;99624.69;5068645;28;20056;-72
2022/12/09 04:28:47;;;;;;;43.40;20.40;;;;;;;0.58;100.00;99622.94;5051900;28;20129;-73
2022/12/09 04:31:15;;;;;;;38.40;19.02;;;;;;;0.48;100.00;99629.63;5052022;28;20040;-72
2022/12/09 04:33:41;;;;;;;46.22;21.02;;;;;;;0.30;100.00;99616.03;5051257;28;20044;-72
2022/12/09 04:36:11;;;;;;;37.50;19.30;;;;;;;0.29;100.00;99636.16;5051851;28;20020;-72
2022/12/09 04:38:36;;;;;;;33.13;16.98;;;;;;;0.23;100.00;99630.25;5052317;28;20033;-72
2022/12/09 04:41:02;;;;;;;41.45;19.50;;;;;;;0.11;100.00;99626.16;5053187;28;20037;-72
2022/12/09 04:43:29;;;;;;;44.63;19.23;;;;;;;0.02;100.00;99630.78;5034805;28;20053;-72
2022/12/09 04:46:00;;;;;;;41.53;19.23;;;;;;;-0.07;100.00;99631.38;5053173;28;20029;-72
2022/12/09 04:48:25;;;;;;;48.17;21.60;;;;;;;-0.16;100.00;99628.38;5052950;28;20082;-72
2022/12/09 04:50:51;;;;;;;44.95;20.05;;;;;;;-0.28;100.00;99629.09;5067814;28;20131;-79
2022/12/09 04:53:18;;;;;;;40.50;20.67;;;;;;;-0.39;100.00;99629.31;5054521;28;20123;-78
2022/12/09 04:55:44;;;;;;;47.42;22.02;;;;;;;-0.53;100.00;99626.03;5056587;28;20047;-79
2022/12/09 04:58:11;;;;;;;46.05;20.88;;;;;;;-0.59;100.00;99639.78;5055803;28;20035;-78
2022/12/09 05:00:37;;;;;;;45.03;21.58;;;;;;;-0.68;100.00;99642.38;5056951;28;20116;-77
2022/12/09 05:03:04;;;;;;;46.13;21.63;;;;;;;-0.77;100.00;99640.13;5055904;28;20029;-77
2022/12/09 05:05:29;;;;;;;41.10;19.60;;;;;;;-0.84;100.00;99648.72;5057251;28;20025;-79
2022/12/09 05:07:56;;;;;;;47.45;21.63;;;;;;;-0.92;100.00;99654.91;5072450;28;20079;-79
2022/12/09 05:10:22;;;;;;;44.83;20.63;;;;;;;-1.00;100.00;99653.44;5055790;28;20041;-78
2022/12/09 05:12:49;;;;;;;42.25;19.70;;;;;;;-1.06;100.00;99649.59;5055477;28;20110;-78
2022/12/09 05:15:16;;;;;;;47.58;21.98;;;;;;;-1.10;100.00;99660.03;5057037;28;20025;-78
2022/12/09 05:17:42;;;;;;;53.92;22.77;;;;;;;-1.16;100.00;99665.34;5072129;28;20136;-78
2022/12/09 05:20:08;;;;;;;46.97;20.08;;;;;;;-1.20;100.00;99664.63;5057062;28;20111;-78
2022/12/09 05:22:33;;;;;;;52.17;23.02;;;;;;;-1.31;100.00;99661.25;5057215;28;20104;-79
2022/12/09 05:24:59;;;;;;;53.13;22.75;;;;;;;-1.32;100.00;99668.06;5055292;28;20429;-78
2022/12/09 05:27:25;;;;;;;45.03;22.48;;;;;;;-1.34;100.00;99674.09;5072013;28;20029;-79
2022/12/09 05:29:52;;;;;;;50.20;22.25;;;;;;;-1.35;100.00;99675.31;5057017;28;20025;-78
2022/12/09 05:32:18;;;;;;;47.92;22.38;;;;;;;-1.34;100.00;99668.50;5056227;28;20037;-79
2022/12/09 05:34:43;;;;;;;54.05;22.55;;;;;;;-1.31;100.00;99673.22;5056167;28;20033;-76
2022/12/09 05:37:13;;;;;;;55.72;21.73;;;;;;;-1.28;100.00;99658.38;5054700;28;20355;-77
2022/12/09 05:39:38;;;;;;;45.42;20.70;;;;;;;-1.22;100.00;99665.09;5055439;28;20597;-77
2022/12/09 05:42:03;;;;;;;43.25;20.17;;;;;;;-1.21;100.00;99665.88;5053778;28;20108;-78
2022/12/09 05:44:29;;;;;;;48.35;20.88;;;;;;;-1.26;100.00;99658.72;5055983;28;20059;-81
2022/12/09 05:46:55;;;;;;;57.17;22.08;;;;;;;-1.32;100.00;99656.88;5054937;28;20035;-80
2022/12/09 05:49:21;;;;;;;49.10;21.15;;;;;;;-1.28;100.00;99672.38;5056945;28;20108;-81
2022/12/09 05:51:47;;;;;;;48.42;22.67;;;;;;;-1.27;100.00;99668.38;5056533;28;20063;-80
2022/12/09 05:54:13;;;;;;;46.67;21.08;;;;;;;-1.23;100.00;99674.69;5057858;28;20032;-81
2022/12/09 05:56:39;;;;;;;56.28;23.20;;;;;;;-1.13;100.00;99672.91;5066654;28;20442;-78
2022/12/09 05:59:06;;;;;;;53.88;23.17;;;;;;;-1.00;100.00;99679.47;5076678;28;20064;-82
2022/12/09 06:01:32;;;;;;;51.67;24.60;;;;;;;-0.85;100.00;99672.38;5076024;28;20033;-80
2022/12/09 06:03:58;;;;;;;57.15;25.77;;;;;;;-0.72;100.00;99664.88;5057295;28;20037;-78
2022/12/09 06:06:26;;;;;;;60.88;27.70;;;;;;;-0.59;100.00;99661.44;5075986;28;20067;-79
2022/12/09 06:09:12;;;;;;;69.30;30.83;;;;;;;-0.44;100.00;99668.31;5074394;28;20500;-78
2022/12/09 06:11:39;;;;;;;77.07;37.35;;;;;;;-0.33;100.00;99664.06;5074990;28;20040;-81
2022/12/09 06:14:10;;;;;;;111.35;49.75;;;;;;;-0.21;100.00;99661.81;5074633;28;20025;-80
2022/12/09 06:16:37;;;;;;;74.03;35.90;;;;;;;-0.15;100.00;99655.25;5057814;28;20069;-81
2022/12/09 06:19:03;;;;;;;71.07;34.13;;;;;;;0.00;100.00;99659.31;5074552;28;20389;-81
2022/12/09 06:21:30;;;;;;;63.47;32.72;;;;;;;0.08;100.00;99657.09;5041414;28;20526;-83
2022/12/09 06:23:56;;;;;;;58.47;29.13;;;;;;;0.15;100.00;99651.34;5041101;28;20173;-82
2022/12/09 06:26:43;;;;;;;57.80;28.92;;;;;;;0.25;100.00;99655.13;5075451;28;20031;-79
2022/12/09 06:29:08;;;;;;;64.78;29.80;;;;;;;0.25;100.00;99646.69;5074402;28;20111;-74
2022/12/09 06:31:33;;;;;;;72.35;40.55;;;;;;;0.33;100.00;99660.09;5073384;28;20441;-75
2022/12/09 06:33:59;;;;;;;67.07;36.10;;;;;;;0.41;100.00;99655.13;5073111;28;20540;-73
2022/12/09 06:36:26;;;;;;;61.50;33.92;;;;;;;0.46;100.00;99663.03;5074875;28;20020;-74
2022/12/09 06:38:51;;;;;;;62.70;34.13;;;;;;;0.47;100.00;99648.50;5074925;28;20187;-74
2022/12/09 06:41:16;;;;;;;61.83;33.38;;;;;;;0.53;100.00;99649.56;5074817;28;20091;-73
2022/12/09 06:43:42;;;;;;;60.30;33.78;;;;;;;0.51;100.00;99649.22;5074640;28;20389;-73
2022/12/09 06:46:24;;;;;;;55.97;29.80;;;;;;;0.50;100.00;99644.84;5074002;28;20020;-73
2022/12/09 06:48:50;;;;;;;52.30;27.10;;;;;;;0.44;100.00;99649.41;5075045;28;20102;-73
2022/12/09 06:51:16;;;;;;;54.03;26.30;;;;;;;0.45;100.00;99653.00;5074961;28;20024;-74
2022/12/09 06:53:42;;;;;;;53.33;27.00;;;;;;;0.38;100.00;99651.16;5074496;28;20077;-73
2022/12/09 06:56:08;;;;;;;51.83;25.92;;;;;;;0.37;100.00;99646.00;5075218;28;20020;-76
2022/12/09 06:58:34;;;;;;;51.08;26.85;;;;;;;0.35;100.00;99652.03;5074549;28;20115;-77
2022/12/09 07:01:04;;;;;;;52.30;26.55;;;;;;;0.33;100.00;99648.06;5074619;28;20083;-78
2022/12/09 07:03:29;;;;;;;64.65;28.42;;;;;;;0.29;100.00;99655.81;5074607;28;20021;-77
2022/12/09 07:05:55;;;;;;;52.83;26.00;;;;;;;0.27;100.00;99647.81;5073892;28;20070;-76
2022/12/09 07:08:20;;;;;;;51.13;26.67;;;;;;;0.25;100.00;99650.28;5074782;28;20081;-75
2022/12/09 07:10:45;;;;;;;50.72;26.20;;;;;;;0.18;100.00;99645.63;5073569;28;20016;-78
2022/12/09 07:13:11;;;;;;;53.55;25.52;;;;;;;0.21;100.00;99646.78;5074504;28;20025;-79
2022/12/09 07:15:36;;;;;;;49.88;22.48;;;;;;;0.22;100.00;99644.75;5055442;28;20488;-78
2022/12/09 07:18:02;;;;;;;49.35;24.05;;;;;;;0.21;100.00;99649.59;5074882;28;20039;-80
2022/12/09 07:20:27;;;;;;;52.45;24.13;;;;;;;0.24;100.00;99647.91;5074609;28;20023;-78
2022/12/09 07:22:52;;;;;;;54.95;26.75;;;;;;;0.27;100.00;99652.66;5074308;28;20036;-78
2022/12/09 07:25:18;;;;;;;61.60;27.45;;;;;;;0.21;100.00;99651.59;5073544;28;20111;-80
2022/12/09 07:27:43;;;;;;;62.63;30.85;;;;;;;0.23;100.00;99655.53;5074496;28;20031;-80
2022/12/09 07:30:09;;;;;;;68.20;30.55;;;;;;;0.22;100.00;99651.16;5073016;28;20021;-80
2022/12/09 07:32:34;;;;;;;70.32;33.65;;;;;;;0.28;100.00;99654.22;5056560;28;20543;-81
2022/12/09 07:35:00;;;;;;;75.20;34.95;;;;;;;0.34;100.00;99670.13;5073484;28;20035;-81
2022/12/09 07:37:25;;;;;;;75.15;34.60;;;;;;;0.35;100.00;99656.88;5074537;28;20465;-82
2022/12/09 07:39:50;;;;;;;75.95;33.70;;;;;;;0.43;100.00;99661.06;5077226;28;20433;-81
2022/12/09 07:42:16;;;;;;;67.90;33.65;;;;;;;0.40;100.00;99661.97;5073526;28;20020;-80
2022/12/09 07:44:41;;;;;;;73.50;33.85;;;;;;;0.46;100.00;99669.44;5075065;28;20115;-83
2022/12/09 07:47:06;;;;;;;70.07;32.08;;;;;;;0.49;100.00;99660.13;5074753;28;20385;-81
2022/12/09 07:49:32;;;;;;;76.65;34.60;;;;;;;0.57;100.00;99658.69;5074656;28;20047;-84
2022/12/09 07:51:57;;;;;;;77.45;33.85;;;;;;;0.64;100.00;99668.19;5075965;28;20462;-81
2022/12/09 07:54:22;;;;;;;70.43;33.28;;;;;;;0.68;100.00;99675.28;5074949;28;20389;-83
2022/12/09 07:56:48;;;;;;;72.68;32.50;;;;;;;0.66;100.00;99663.72;5074093;28;20020;-81
2022/12/09 07:59:14;;;;;;;69.63;30.98;;;;;;;0.52;100.00;99653.59;5073894;28;20032;-82
2022/12/09 08:01:39;;;;;;;79.20;36.72;;;;;;;0.53;100.00;99674.06;5074098;28;20058;-80
2022/12/09 08:04:05;;;;;;;88.53;34.10;;;;;;;0.47;100.00;99667.38;5055546;28;20028;-77
2022/12/09 08:06:31;;;;;;;86.95;38.45;;;;;;;0.40;100.00;99665.56;5073785;28;20028;-76
2022/12/09 08:08:58;;;;;;;87.45;37.00;;;;;;;0.38;100.00;99668.00;5073561;28;20042;-77
2022/12/09 08:11:26;;;;;;;87.28;34.83;;;;;;;0.38;100.00;99672.84;5074524;28;20126;-78
2022/12/09 08:13:52;;;;;;;70.93;32.53;;;;;;;0.36;100.00;99684.53;5073840;28;20039;-75
2022/12/09 08:16:19;;;;;;;78.65;33.28;;;;;;;0.30;100.00;99677.84;5072380;28;20025;-76
2022/12/09 08:18:44;;;;;;;69.40;31.73;;;;;;;0.37;100.00;99677.66;5073826;28;20501;-80
2022/12/09 08:21:15;;;;;;;71.63;33.08;;;;;;;0.44;100.00;99677.50;5073465;28;20020;-73
2022/12/09 08:23:41;;;;;;;73.45;34.15;;;;;;;0.54;100.00;99673.63;5073429;28;20028;-76
2022/12/09 08:26:08;;;;;;;73.72;32.55;;;;;;;0.64;100.00;99674.59;5072117;28;20051;-76
2022/12/09 08:28:33;;;;;;;66.97;27.77;;;;;;;0.75;100.00;99666.69;5071725;28;20040;-74
2022/12/09 08:31:08;;;;;;;64.50;27.75;;;;;;;0.78;100.00;99662.97;5073102;28;20190;-75
2022/12/09 08:33:33;;;;;;;62.03;27.65;;;;;;;0.78;100.00;99662.97;5073268;28;20033;-76
2022/12/09 08:36:02;;;;;;;68.68;31.90;;;;;;;0.84;100.00;99666.03;5069524;28;20047;-77
2022/12/09 08:38:30;;;;;;;57.72;28.80;;;;;;;0.90;100.00;99670.69;5071267;28;20039;-76
2022/12/09 08:40:56;;;;;;;62.03;28.13;;;;;;;0.97;100.00;99669.69;5069359;28;20106;-75
2022/12/09 08:43:21;;;;;;;70.63;29.42;;;;;;;1.01;100.00;99664.75;5070840;28;20091;-76
2022/12/09 08:45:46;;;;;;;70.68;30.00;;;;;;;1.09;100.00;99674.59;5069575;28;20025;-76
2022/12/09 08:48:12;;;;;;;67.53;31.10;;;;;;;1.14;100.00;99674.06;5053021;28;20028;-76
2022/12/09 08:50:37;;;;;;;73.32;32.40;;;;;;;1.20;100.00;99671.50;5072259;28;20116;-75
2022/12/09 08:53:02;;;;;;;70.18;31.27;;;;;;;1.20;100.00;99665.88;5073254;28;20415;-75
2022/12/09 08:55:28;;;;;;;63.00;28.00;;;;;;;1.27;100.00;99666.44;5072835;28;20020;-75
2022/12/09 08:57:53;;;;;;;61.17;27.58;;;;;;;1.32;100.00;99662.28;5071615;28;20028;-74
2022/12/09 09:00:19;;;;;;;63.25;29.98;;;;;;;1.36;100.00;99668.59;5071853;28;20031;-73
2022/12/09 09:02:44;;;;;;;71.88;31.52;;;;;;;1.36;100.00;99663.75;5073308;28;20457;-75
2022/12/09 09:05:10;;;;;;;67.57;28.33;;;;;;;1.37;100.00;99664.56;5072768;28;20456;-75
2022/12/09 09:07:36;;;;;;;63.30;27.25;;;;;;;1.34;100.00;99655.00;5073042;28;20032;-75
2022/12/09 09:10:01;;;;;;;70.25;30.27;;;;;;;1.40;100.00;99655.25;5071758;28;20078;-74
2022/12/09 09:12:26;;;;;;;64.55;29.73;;;;;;;1.42;100.00;99650.72;5072669;28;20405;-75
2022/12/09 09:14:53;;;;;;;72.43;30.17;;;;;;;1.48;100.00;99648.94;5073149;28;20492;-74
2022/12/09 09:17:19;;;;;;;76.85;32.50;;;;;;;1.52;100.00;99653.69;5072903;28;20028;-75
2022/12/09 09:19:45;;;;;;;69.78;31.50;;;;;;;1.56;100.00;99646.69;5073062;28;20025;-75
2022/12/09 09:22:10;;;;;;;72.68;32.78;;;;;;;1.61;100.00;99645.34;5072915;28;20033;-75
2022/12/09 09:24:35;;;;;;;58.78;27.63;;;;;;;1.64;100.00;99648.09;5072618;28;20028;-75
2022/12/09 09:27:01;;;;;;;64.13;30.33;;;;;;;1.70;100.00;99651.13;5072450;28;20029;-74
2022/12/09 09:29:27;;;;;;;60.05;27.38;;;;;;;1.75;100.00;99644.94;5071605;28;20385;-74
2022/12/09 09:31:52;;;;;;;63.05;27.33;;;;;;;1.80;100.00;99650.78;5071509;28;20470;-74
2022/12/09 09:34:19;;;;;;;53.50;25.75;;;;;;;1.87;100.00;99642.13;5072547;28;20418;-74
2022/12/09 09:36:44;;;;;;;62.03;29.25;;;;;;;1.93;100.00;99645.19;5072670;28;20031;-74
2022/12/09 09:39:10;;;;;;;58.45;27.30;;;;;;;1.94;100.00;99632.69;5056094;28;20024;-74
2022/12/09 09:41:55;;;;;;;50.08;27.08;;;;;;;2.00;100.00;99630.06;5074884;28;20465;-75
2022/12/09 09:44:22;;;;;;;59.20;25.45;;;;;;;2.01;100.00;99629.63;5076051;28;20049;-74
2022/12/09 09:46:49;;;;;;;60.20;26.58;;;;;;;2.08;100.00;99628.63;5074915;28;20082;-75
2022/12/09 09:49:20;;;;;;;52.80;25.92;;;;;;;2.16;100.00;99636.38;5074768;28;20478;-75
2022/12/09 09:51:45;;;;;;;56.47;25.35;;;;;;;2.23;100.00;99629.72;5075559;28;20526;-78
2022/12/09 09:54:12;;;;;;;49.20;24.67;;;;;;;2.26;100.00;99620.38;5075972;28;20028;-81
2022/12/09 09:56:44;;;;;;;41.85;21.33;;;;;;;2.37;100.00;99626.44;5076326;28;20028;-79
2022/12/09 09:59:26;;;;;;;78.53;26.00;;;;;;;2.44;100.00;99634.66;5058631;28;20029;-78
2022/12/09 10:02:05;;;;;;;48.80;21.90;;;;;;;2.45;100.00;99627.78;5075312;28;20035;-80
2022/12/09 10:04:49;;;;;;;42.80;20.65;;;;;;;2.43;100.00;99621.03;5076119;28;20028;-82
2022/12/09 10:07:22;;;;;;;42.78;21.50;;;;;;;2.41;100.00;99617.84;5076927;28;20043;-81
2022/12/09 10:09:53;;;;;;;47.08;19.30;;;;;;;2.40;100.00;99610.63;5075221;28;20025;-80
2022/12/09 10:12:27;;;;;;;38.03;19.38;;;;;;;2.41;100.00;99615.84;5076617;28;20376;-80
2022/12/09 10:14:57;;;;;;;38.58;19.00;;;;;;;2.45;100.00;99621.34;5075467;28;20040;-83
2022/12/09 10:17:34;;;;;;;36.63;19.70;;;;;;;2.51;100.00;99609.03;5076543;28;20055;-79
2022/12/09 10:20:17;;;;;;;44.30;20.98;;;;;;;2.65;100.00;99619.03;5077112;28;20039;-82
2022/12/09 10:22:47;;;;;;;49.53;22.65;;;;;;;2.68;100.00;99610.47;5075570;28;20118;-78
2022/12/09 10:25:17;;;;;;;52.10;24.45;;;;;;;2.75;100.00;99609.41;5074356;28;20035;-82
2022/12/09 10:27:51;;;;;;;47.88;23.70;;;;;;;2.76;100.00;99599.72;5058851;28;20485;-81
2022/12/09 10:30:17;;;;;;;47.03;22.75;;;;;;;2.90;100.00;99609.69;5074389;28;20036;-83
2022/12/09 10:32:43;;;;;;;40.88;20.45;;;;;;;2.93;100.00;99609.59;5075609;28;20039;-82
2022/12/09 10:35:28;;;;;;;42.50;19.25;;;;;;;2.95;100.00;99589.38;5075422;28;20024;-80
2022/12/09 10:37:55;;;;;;;48.05;21.20;;;;;;;3.11;100.00;99603.28;5075971;28;20029;-81
2022/12/09 10:40:30;;;;;;;41.30;20.58;;;;;;;3.21;100.00;99596.47;5073998;28;20063;-79
2022/12/09 10:45:54;;;;;;;52.17;21.85;;;;;;;3.47;100.00;99577.34;5079086;28;20396;-81
2022/12/09 10:48:31;;;;;;;53.65;22.38;;;;;;;3.60;100.00;99573.19;5062232;28;20039;-83
2022/12/09 10:51:13;;;;;;;47.38;20.90;;;;;;;3.75;100.00;99567.75;5074917;28;20104;-81
2022/12/09 10:53:54;;;;;;;49.78;22.10;;;;;;;3.81;100.00;99562.28;5075900;28;20157;-76
2022/12/09 10:56:32;;;;;;;51.23;22.50;;;;;;;3.89;100.00;99558.72;5075775;28;20024;-80
2022/12/09 10:59:09;;;;;;;38.80;19.88;;;;;;;3.91;100.00;99553.41;5076199;28;20020;-83
2022/12/09 11:01:52;;;;;;;45.65;21.17;;;;;;;3.86;100.00;99548.34;5075338;28;20031;-81
2022/12/09 11:04:24;;;;;;;45.67;20.77;;;;;;;3.92;100.00;99548.53;5075055;28;20069;-80
2022/12/09 11:06:50;;;;;;;48.60;22.33;;;;;;;3.97;100.00;99545.09;5079556;28;20416;-80
2022/12/09 11:09:25;;;;;;;35.33;19.25;;;;;;;4.06;100.00;99542.31;5077696;28;20104;-78
2022/12/09 11:11:50;;;;;;;37.75;17.33;;;;;;;4.16;100.00;99537.47;5079027;28;20051;-79
2022/12/09 11:14:23;;;;;;;37.63;16.98;;;;;;;4.15;100.00;99542.31;5077339;28;20020;-75
2022/12/09 11:16:51;;;;;;;38.08;16.90;;;;;;;4.17;100.00;99536.97;5074402;28;20076;-75
2022/12/09 11:19:17;;;;;;;28.45;14.32;;;;;;;4.14;100.00;99537.91;5064141;28;20039;-76
2022/12/09 11:21:42;;;;;;;30.98;14.98;;;;;;;4.13;100.00;99544.03;5070130;28;20036;-76
2022/12/09 11:24:19;;;;;;;25.45;14.73;;;;;;;4.05;100.00;99540.72;5073113;28;20089;-75
2022/12/09 11:26:45;;;;;;;34.50;16.17;;;;;;;3.91;100.00;99527.97;5073629;28;20024;-77
2022/12/09 11:29:17;;;;;;;25.92;11.82;;;;;;;3.82;100.00;99525.06;5073799;28;20034;-75
2022/12/09 11:31:43;;;;;;;22.13;12.15;;;;;;;3.77;100.00;99519.25;5062628;28;20037;-77